sensor_id;sensor_type;location;lat;lon;timestamp;temperature;humidity
5796;DHT22;2924;51.458;7.046;2024-01-30T00:01:26;8.70;99.90
5796;DHT22;2924;51.458;7.046;2024-01-30T00:03:51;8.60;99.90
5796;DHT22;2924;51.458;7.046;2024-01-30T00:06:20;8.70;99.90
5796;DHT22;2924;51.458;7.046;2024-01-30T00:08:49;8.70;99.90
5796;DHT22;2924;51.458;7.046;2024-01-30T00:11:15;8.70;99.90
5796;DHT22;2924;51.458;7.046;2024-01-30T00:13:41;8.60;99.90
5796;DHT22;2924;51.458;7.046;2024-01-30T00:16:07;8.60;99.90
5796;DHT22;2924;51.458;7.046;2024-01-30T00:18:34;8.60;99.90
5796;DHT22;2924;51.458;7.046;2024-01-30T00:21:00;8.60;99.90
5796;DHT22;2924;51.458;7.046;2024-01-30T00:23:25;8.60;99.90
5796;DHT22;2924;51.458;7.046;2024-01-30T00:25:51;8.60;99.90
5796;DHT22;2924;51.458;7.046;2024-01-30T00:28:16;8.60;99.90
5796;DHT22;2924;51.458;7.046;2024-01-30T00:30:42;8.70;99.90
5796;DHT22;2924;51.458;7.046;2024-01-30T00:33:09;8.60;99.90
5796;DHT22;2924;51.458;7.046;2024-01-30T00:35:34;8.60;99.90
5796;DHT22;2924;51.458;7.046;2024-01-30T00:38:00;8.70;99.90
5796;DHT22;2924;51.458;7.046;2024-01-30T00:40:26;8.70;99.90
5796;DHT22;2924;51.458;7.046;2024-01-30T00:42:51;8.70;99.90
5796;DHT22;2924;51.458;7.046;2024-01-30T00:45:17;8.70;99.90
5796;DHT22;2924;51.458;7.046;2024-01-30T00:47:43;8.70;99.90
5796;DHT22;2924;51.458;7.046;2024-01-30T00:50:09;8.70;99.90
5796;DHT22;2924;51.458;7.046;2024-01-30T00:52:35;8.70;99.90
5796;DHT22;2924;51.458;7.046;2024-01-30T00:55:01;8.80;99.90
5796;DHT22;2924;51.458;7.046;2024-01-30T00:57:27;8.70;99.90
5796;DHT22;2924;51.458;7.046;2024-01-30T00:59:52;8.70;99.90
5796;DHT22;2924;51.458;7.046;2024-01-30T01:02:18;8.70;99.90
5796;DHT22;2924;51.458;7.046;2024-01-30T01:04:44;8.60;99.90
5796;DHT22;2924;51.458;7.046;2024-01-30T01:07:10;8.60;99.90
5796;DHT22;2924;51.458;7.046;2024-01-30T01:09:36;8.60;99.90
5796;DHT22;2924;51.458;7.046;2024-01-30T01:12:03;8.60;99.90
5796;DHT22;2924;51.458;7.046;2024-01-30T01:14:28;8.60;99.90
5796;DHT22;2924;51.458;7.046;2024-01-30T01:16:54;8.60;99.90
5796;DHT22;2924;51.458;7.046;2024-01-30T01:19:19;8.60;99.90
5796;DHT22;2924;51.458;7.046;2024-01-30T01:21:45;8.60;99.90
5796;DHT22;2924;51.458;7.046;2024-01-30T01:24:11;8.60;99.90
5796;DHT22;2924;51.458;7.046;2024-01-30T01:26:36;8.60;99.90
5796;DHT22;2924;51.458;7.046;2024-01-30T01:29:02;8.60;99.90
5796;DHT22;2924;51.458;7.046;2024-01-30T01:31:38;8.60;99.90
5796;DHT22;2924;51.458;7.046;2024-01-30T01:34:10;8.50;99.90
5796;DHT22;2924;51.458;7.046;2024-01-30T01:36:36;8.50;99.90
5796;DHT22;2924;51.458;7.046;2024-01-30T01:39:01;8.50;99.90
5796;DHT22;2924;51.458;7.046;2024-01-30T01:41:31;8.50;99.90
5796;DHT22;2924;51.458;7.046;2024-01-30T01:43:57;8.50;99.90
5796;DHT22;2924;51.458;7.046;2024-01-30T01:46:23;8.50;99.90
5796;DHT22;2924;51.458;7.046;2024-01-30T01:48:49;8.50;99.90
5796;DHT22;2924;51.458;7.046;2024-01-30T01:51:15;8.40;99.90
5796;DHT22;2924;51.458;7.046;2024-01-30T01:53:42;8.50;99.90
5796;DHT22;2924;51.458;7.046;2024-01-30T01:56:08;8.50;99.90
5796;DHT22;2924;51.458;7.046;2024-01-30T01:58:34;8.50;99.90
5796;DHT22;2924;51.458;7.046;2024-01-30T02:01:00;8.50;99.90
5796;DHT22;2924;51.458;7.046;2024-01-30T02:03:25;8.50;99.90
5796;DHT22;2924;51.458;7.046;2024-01-30T02:05:51;8.40;99.90
5796;DHT22;2924;51.458;7.046;2024-01-30T02:08:17;8.50;99.90
5796;DHT22;2924;51.458;7.046;2024-01-30T02:10:42;8.40;99.90
5796;DHT22;2924;51.458;7.046;2024-01-30T02:13:08;8.40;99.90
5796;DHT22;2924;51.458;7.046;2024-01-30T02:15:34;8.40;99.90
5796;DHT22;2924;51.458;7.046;2024-01-30T02:17:59;8.40;99.90
5796;DHT22;2924;51.458;7.046;2024-01-30T02:20:25;8.40;99.90
5796;DHT22;2924;51.458;7.046;2024-01-30T02:22:54;8.40;99.90
5796;DHT22;2924;51.458;7.046;2024-01-30T02:25:33;8.30;99.90
5796;DHT22;2924;51.458;7.046;2024-01-30T02:27:59;8.20;99.90
5796;DHT22;2924;51.458;7.046;2024-01-30T02:30:24;8.20;99.90
5796;DHT22;2924;51.458;7.046;2024-01-30T02:32:50;8.20;99.90
5796;DHT22;2924;51.458;7.046;2024-01-30T02:35:16;8.20;99.90
5796;DHT22;2924;51.458;7.046;2024-01-30T02:37:41;8.10;99.90
5796;DHT22;2924;51.458;7.046;2024-01-30T02:40:07;8.20;99.90
5796;DHT22;2924;51.458;7.046;2024-01-30T02:42:33;8.20;99.90
5796;DHT22;2924;51.458;7.046;2024-01-30T02:44:58;8.20;99.90
5796;DHT22;2924;51.458;7.046;2024-01-30T02:47:24;8.20;99.90
5796;DHT22;2924;51.458;7.046;2024-01-30T02:49:49;8.10;99.90
5796;DHT22;2924;51.458;7.046;2024-01-30T02:52:15;8.10;99.90
5796;DHT22;2924;51.458;7.046;2024-01-30T02:54:40;8.10;99.90
5796;DHT22;2924;51.458;7.046;2024-01-30T02:57:06;8.10;99.90
5796;DHT22;2924;51.458;7.046;2024-01-30T02:59:31;8.10;99.90
5796;DHT22;2924;51.458;7.046;2024-01-30T03:02:01;8.00;99.90
5796;DHT22;2924;51.458;7.046;2024-01-30T03:04:26;8.10;99.90
5796;DHT22;2924;51.458;7.046;2024-01-30T03:06:52;8.10;99.90
5796;DHT22;2924;51.458;7.046;2024-01-30T03:09:18;8.10;99.90
5796;DHT22;2924;51.458;7.046;2024-01-30T03:11:43;8.10;99.90
5796;DHT22;2924;51.458;7.046;2024-01-30T03:14:09;8.10;99.90
5796;DHT22;2924;51.458;7.046;2024-01-30T03:16:37;8.10;99.90
5796;DHT22;2924;51.458;7.046;2024-01-30T03:19:03;8.00;99.90
5796;DHT22;2924;51.458;7.046;2024-01-30T03:21:29;8.00;99.90
5796;DHT22;2924;51.458;7.046;2024-01-30T03:23:54;8.10;99.90
5796;DHT22;2924;51.458;7.046;2024-01-30T03:26:20;8.10;99.90
5796;DHT22;2924;51.458;7.046;2024-01-30T03:28:46;8.10;99.90
5796;DHT22;2924;51.458;7.046;2024-01-30T03:31:15;8.10;99.90
5796;DHT22;2924;51.458;7.046;2024-01-30T03:33:41;8.10;99.90
5796;DHT22;2924;51.458;7.046;2024-01-30T03:36:08;8.00;99.90
5796;DHT22;2924;51.458;7.046;2024-01-30T03:38:34;8.00;99.90
5796;DHT22;2924;51.458;7.046;2024-01-30T03:41:00;8.10;99.90
5796;DHT22;2924;51.458;7.046;2024-01-30T03:43:26;8.10;99.90
5796;DHT22;2924;51.458;7.046;2024-01-30T03:45:51;8.10;99.90
5796;DHT22;2924;51.458;7.046;2024-01-30T03:48:17;8.20;99.90
5796;DHT22;2924;51.458;7.046;2024-01-30T03:50:43;8.20;99.90
5796;DHT22;2924;51.458;7.046;2024-01-30T03:53:09;8.30;99.90
5796;DHT22;2924;51.458;7.046;2024-01-30T03:55:34;8.30;99.90
5796;DHT22;2924;51.458;7.046;2024-01-30T03:58:00;8.40;99.90
5796;DHT22;2924;51.458;7.046;2024-01-30T04:00:25;8.40;99.90
5796;DHT22;2924;51.458;7.046;2024-01-30T04:02:51;8.50;99.90
5796;DHT22;2924;51.458;7.046;2024-01-30T04:05:17;8.50;99.90
5796;DHT22;2924;51.458;7.046;2024-01-30T04:07:42;8.60;99.90
5796;DHT22;2924;51.458;7.046;2024-01-30T04:10:09;8.60;99.90
5796;DHT22;2924;51.458;7.046;2024-01-30T04:12:35;8.60;99.90
5796;DHT22;2924;51.458;7.046;2024-01-30T04:15:01;8.70;99.90
5796;DHT22;2924;51.458;7.046;2024-01-30T04:17:27;8.70;99.90
5796;DHT22;2924;51.458;7.046;2024-01-30T04:19:54;8.80;99.90
5796;DHT22;2924;51.458;7.046;2024-01-30T04:22:20;8.90;99.90
5796;DHT22;2924;51.458;7.046;2024-01-30T04:24:45;8.90;99.90
5796;DHT22;2924;51.458;7.046;2024-01-30T04:27:11;8.90;99.90
5796;DHT22;2924;51.458;7.046;2024-01-30T04:29:36;9.00;99.90
5796;DHT22;2924;51.458;7.046;2024-01-30T04:32:05;9.00;99.90
5796;DHT22;2924;51.458;7.046;2024-01-30T04:34:31;9.00;99.90
5796;DHT22;2924;51.458;7.046;2024-01-30T04:36:56;9.10;99.90
5796;DHT22;2924;51.458;7.046;2024-01-30T04:39:22;9.10;99.90
5796;DHT22;2924;51.458;7.046;2024-01-30T04:41:48;9.20;99.90
5796;DHT22;2924;51.458;7.046;2024-01-30T04:44:14;9.20;99.90
5796;DHT22;2924;51.458;7.046;2024-01-30T04:46:39;9.30;99.90
5796;DHT22;2924;51.458;7.046;2024-01-30T04:49:05;9.30;99.90
5796;DHT22;2924;51.458;7.046;2024-01-30T04:51:33;9.40;99.90
5796;DHT22;2924;51.458;7.046;2024-01-30T04:53:58;9.40;99.90
5796;DHT22;2924;51.458;7.046;2024-01-30T04:56:24;9.50;99.90
5796;DHT22;2924;51.458;7.046;2024-01-30T04:58:50;9.50;99.90
5796;DHT22;2924;51.458;7.046;2024-01-30T05:01:16;9.40;99.90
5796;DHT22;2924;51.458;7.046;2024-01-30T05:03:42;9.40;99.90
5796;DHT22;2924;51.458;7.046;2024-01-30T05:06:08;9.50;99.90
5796;DHT22;2924;51.458;7.046;2024-01-30T05:08:34;9.50;99.90
5796;DHT22;2924;51.458;7.046;2024-01-30T05:11:02;9.50;99.90
5796;DHT22;2924;51.458;7.046;2024-01-30T05:13:30;9.50;99.90
5796;DHT22;2924;51.458;7.046;2024-01-30T05:15:56;9.40;99.90
5796;DHT22;2924;51.458;7.046;2024-01-30T05:18:21;9.30;99.90
5796;DHT22;2924;51.458;7.046;2024-01-30T05:20:47;9.30;99.90
5796;DHT22;2924;51.458;7.046;2024-01-30T05:23:12;9.30;99.90
5796;DHT22;2924;51.458;7.046;2024-01-30T05:25:38;9.30;99.90
5796;DHT22;2924;51.458;7.046;2024-01-30T05:28:04;9.30;99.90
5796;DHT22;2924;51.458;7.046;2024-01-30T05:30:30;9.30;99.90
5796;DHT22;2924;51.458;7.046;2024-01-30T05:32:55;9.40;99.90
5796;DHT22;2924;51.458;7.046;2024-01-30T05:35:21;9.30;99.90
5796;DHT22;2924;51.458;7.046;2024-01-30T05:37:48;9.30;99.90
5796;DHT22;2924;51.458;7.046;2024-01-30T05:40:14;9.30;99.90
5796;DHT22;2924;51.458;7.046;2024-01-30T05:42:40;9.30;99.90
5796;DHT22;2924;51.458;7.046;2024-01-30T05:45:06;9.30;99.90
5796;DHT22;2924;51.458;7.046;2024-01-30T05:47:32;9.30;99.90
5796;DHT22;2924;51.458;7.046;2024-01-30T05:49:57;9.40;99.90
5796;DHT22;2924;51.458;7.046;2024-01-30T05:52:23;9.30;99.90
5796;DHT22;2924;51.458;7.046;2024-01-30T05:54:48;9.30;99.90
5796;DHT22;2924;51.458;7.046;2024-01-30T05:57:14;9.30;99.90
5796;DHT22;2924;51.458;7.046;2024-01-30T05:59:39;9.30;99.90
5796;DHT22;2924;51.458;7.046;2024-01-30T06:02:05;9.20;99.90
5796;DHT22;2924;51.458;7.046;2024-01-30T06:04:30;9.10;99.90
5796;DHT22;2924;51.458;7.046;2024-01-30T06:06:56;9.10;99.90
5796;DHT22;2924;51.458;7.046;2024-01-30T06:09:21;9.10;99.90
5796;DHT22;2924;51.458;7.046;2024-01-30T06:11:47;9.10;99.90
5796;DHT22;2924;51.458;7.046;2024-01-30T06:14:12;9.20;99.90
5796;DHT22;2924;51.458;7.046;2024-01-30T06:16:38;9.20;99.90
5796;DHT22;2924;51.458;7.046;2024-01-30T06:19:04;9.20;99.90
5796;DHT22;2924;51.458;7.046;2024-01-30T06:21:29;9.20;99.90
5796;DHT22;2924;51.458;7.046;2024-01-30T06:23:56;9.30;99.90
5796;DHT22;2924;51.458;7.046;2024-01-30T06:26:21;9.30;99.90
5796;DHT22;2924;51.458;7.046;2024-01-30T06:28:47;9.30;99.90
5796;DHT22;2924;51.458;7.046;2024-01-30T06:31:12;9.20;99.90
5796;DHT22;2924;51.458;7.046;2024-01-30T06:33:38;9.20;99.90
5796;DHT22;2924;51.458;7.046;2024-01-30T06:36:04;9.30;99.90
5796;DHT22;2924;51.458;7.046;2024-01-30T06:38:29;9.30;99.90
5796;DHT22;2924;51.458;7.046;2024-01-30T06:40:55;9.20;99.90
5796;DHT22;2924;51.458;7.046;2024-01-30T06:43:21;9.20;99.90
5796;DHT22;2924;51.458;7.046;2024-01-30T06:45:47;9.20;99.90
5796;DHT22;2924;51.458;7.046;2024-01-30T06:48:12;9.30;99.90
5796;DHT22;2924;51.458;7.046;2024-01-30T06:50:38;9.30;99.90
5796;DHT22;2924;51.458;7.046;2024-01-30T06:53:04;9.30;99.90
5796;DHT22;2924;51.458;7.046;2024-01-30T06:55:29;9.30;99.90
5796;DHT22;2924;51.458;7.046;2024-01-30T06:57:55;9.30;99.90
5796;DHT22;2924;51.458;7.046;2024-01-30T07:00:20;9.40;99.90
5796;DHT22;2924;51.458;7.046;2024-01-30T07:02:46;9.50;99.90
5796;DHT22;2924;51.458;7.046;2024-01-30T07:05:12;9.50;99.90
5796;DHT22;2924;51.458;7.046;2024-01-30T07:07:38;9.50;99.90
5796;DHT22;2924;51.458;7.046;2024-01-30T07:10:04;9.40;99.90
5796;DHT22;2924;51.458;7.046;2024-01-30T07:12:30;9.50;99.90
5796;DHT22;2924;51.458;7.046;2024-01-30T07:14:56;9.50;99.90
5796;DHT22;2924;51.458;7.046;2024-01-30T07:17:22;9.50;99.90
5796;DHT22;2924;51.458;7.046;2024-01-30T07:19:47;9.50;99.90
5796;DHT22;2924;51.458;7.046;2024-01-30T07:22:13;9.50;99.90
5796;DHT22;2924;51.458;7.046;2024-01-30T07:24:43;9.50;99.90
5796;DHT22;2924;51.458;7.046;2024-01-30T07:27:10;9.60;99.90
5796;DHT22;2924;51.458;7.046;2024-01-30T07:29:35;9.60;99.90
5796;DHT22;2924;51.458;7.046;2024-01-30T07:32:01;9.70;99.90
5796;DHT22;2924;51.458;7.046;2024-01-30T07:34:27;9.60;99.90
5796;DHT22;2924;51.458;7.046;2024-01-30T07:36:53;9.70;99.90
5796;DHT22;2924;51.458;7.046;2024-01-30T07:39:18;9.80;99.90
5796;DHT22;2924;51.458;7.046;2024-01-30T07:41:44;9.80;99.90
5796;DHT22;2924;51.458;7.046;2024-01-30T07:44:09;9.90;99.90
5796;DHT22;2924;51.458;7.046;2024-01-30T07:46:35;9.90;99.90
5796;DHT22;2924;51.458;7.046;2024-01-30T07:49:00;10.00;99.90
5796;DHT22;2924;51.458;7.046;2024-01-30T07:51:27;10.10;99.90
5796;DHT22;2924;51.458;7.046;2024-01-30T07:53:54;10.10;99.90
5796;DHT22;2924;51.458;7.046;2024-01-30T07:56:20;10.10;99.90
5796;DHT22;2924;51.458;7.046;2024-01-30T07:58:46;10.10;99.90
5796;DHT22;2924;51.458;7.046;2024-01-30T08:01:11;10.20;99.90
5796;DHT22;2924;51.458;7.046;2024-01-30T08:03:37;10.30;99.90
5796;DHT22;2924;51.458;7.046;2024-01-30T08:06:05;10.30;99.90
5796;DHT22;2924;51.458;7.046;2024-01-30T08:08:32;10.30;99.90
5796;DHT22;2924;51.458;7.046;2024-01-30T08:10:57;10.30;99.90
5796;DHT22;2924;51.458;7.046;2024-01-30T08:13:23;10.40;99.90
5796;DHT22;2924;51.458;7.046;2024-01-30T08:15:48;10.40;99.90
5796;DHT22;2924;51.458;7.046;2024-01-30T08:18:14;10.40;99.90
5796;DHT22;2924;51.458;7.046;2024-01-30T08:20:39;10.50;99.90
5796;DHT22;2924;51.458;7.046;2024-01-30T08:23:05;10.40;99.90
5796;DHT22;2924;51.458;7.046;2024-01-30T08:25:31;10.40;99.90
5796;DHT22;2924;51.458;7.046;2024-01-30T08:27:56;10.50;99.90
5796;DHT22;2924;51.458;7.046;2024-01-30T08:30:22;10.40;99.90
5796;DHT22;2924;51.458;7.046;2024-01-30T08:32:48;10.40;99.90
5796;DHT22;2924;51.458;7.046;2024-01-30T08:35:14;10.40;99.90
5796;DHT22;2924;51.458;7.046;2024-01-30T08:37:41;10.50;99.90
5796;DHT22;2924;51.458;7.046;2024-01-30T08:40:08;10.50;99.90
5796;DHT22;2924;51.458;7.046;2024-01-30T08:42:36;10.50;99.90
5796;DHT22;2924;51.458;7.046;2024-01-30T08:45:02;10.50;99.90
5796;DHT22;2924;51.458;7.046;2024-01-30T08:47:30;10.40;99.90
5796;DHT22;2924;51.458;7.046;2024-01-30T08:49:55;10.50;99.90
5796;DHT22;2924;51.458;7.046;2024-01-30T08:52:23;10.50;99.90
5796;DHT22;2924;51.458;7.046;2024-01-30T08:54:49;10.40;99.90
5796;DHT22;2924;51.458;7.046;2024-01-30T08:57:14;10.50;99.90
5796;DHT22;2924;51.458;7.046;2024-01-30T08:59:40;10.60;99.90
5796;DHT22;2924;51.458;7.046;2024-01-30T09:02:05;10.60;99.90
5796;DHT22;2924;51.458;7.046;2024-01-30T09:04:31;10.60;99.90
5796;DHT22;2924;51.458;7.046;2024-01-30T09:06:57;10.60;99.90
5796;DHT22;2924;51.458;7.046;2024-01-30T09:09:22;10.70;99.90
5796;DHT22;2924;51.458;7.046;2024-01-30T09:11:48;10.60;99.90
5796;DHT22;2924;51.458;7.046;2024-01-30T09:14:13;10.70;99.90
5796;DHT22;2924;51.458;7.046;2024-01-30T09:16:39;10.70;99.90
5796;DHT22;2924;51.458;7.046;2024-01-30T09:19:05;10.70;99.90
5796;DHT22;2924;51.458;7.046;2024-01-30T09:21:30;10.70;99.90
5796;DHT22;2924;51.458;7.046;2024-01-30T09:24:02;10.70;99.90
5796;DHT22;2924;51.458;7.046;2024-01-30T09:26:29;10.70;99.90
5796;DHT22;2924;51.458;7.046;2024-01-30T09:28:54;10.70;99.90
5796;DHT22;2924;51.458;7.046;2024-01-30T09:31:20;10.70;99.90
5796;DHT22;2924;51.458;7.046;2024-01-30T09:33:45;10.90;99.90
5796;DHT22;2924;51.458;7.046;2024-01-30T09:36:13;10.90;99.90
5796;DHT22;2924;51.458;7.046;2024-01-30T09:38:41;10.90;99.90
5796;DHT22;2924;51.458;7.046;2024-01-30T09:41:09;11.00;99.90
5796;DHT22;2924;51.458;7.046;2024-01-30T09:43:38;11.10;99.90
5796;DHT22;2924;51.458;7.046;2024-01-30T09:46:05;11.20;99.90
5796;DHT22;2924;51.458;7.046;2024-01-30T09:48:33;11.20;99.90
5796;DHT22;2924;51.458;7.046;2024-01-30T09:50:59;11.30;99.90
5796;DHT22;2924;51.458;7.046;2024-01-30T09:53:25;11.30;99.90
5796;DHT22;2924;51.458;7.046;2024-01-30T09:55:51;11.40;99.90
5796;DHT22;2924;51.458;7.046;2024-01-30T09:58:17;11.40;99.90
5796;DHT22;2924;51.458;7.046;2024-01-30T10:00:43;11.50;99.90
5796;DHT22;2924;51.458;7.046;2024-01-30T10:03:09;11.60;99.90
5796;DHT22;2924;51.458;7.046;2024-01-30T10:05:36;11.60;99.90
5796;DHT22;2924;51.458;7.046;2024-01-30T10:08:06;11.70;99.90
5796;DHT22;2924;51.458;7.046;2024-01-30T10:10:33;11.70;99.90
5796;DHT22;2924;51.458;7.046;2024-01-30T10:13:00;11.80;99.90
5796;DHT22;2924;51.458;7.046;2024-01-30T10:15:25;12.00;99.90
5796;DHT22;2924;51.458;7.046;2024-01-30T10:17:53;12.10;99.90
5796;DHT22;2924;51.458;7.046;2024-01-30T10:20:19;12.10;99.90
5796;DHT22;2924;51.458;7.046;2024-01-30T10:22:45;12.10;99.90
5796;DHT22;2924;51.458;7.046;2024-01-30T10:25:11;12.10;99.90
5796;DHT22;2924;51.458;7.046;2024-01-30T10:27:36;12.20;99.90
5796;DHT22;2924;51.458;7.046;2024-01-30T10:30:05;12.30;99.90
5796;DHT22;2924;51.458;7.046;2024-01-30T10:32:30;12.40;99.90
5796;DHT22;2924;51.458;7.046;2024-01-30T10:34:56;12.40;99.90
5796;DHT22;2924;51.458;7.046;2024-01-30T10:37:24;12.50;99.90
5796;DHT22;2924;51.458;7.046;2024-01-30T10:39:53;12.60;99.90
5796;DHT22;2924;51.458;7.046;2024-01-30T10:42:20;12.60;99.90
5796;DHT22;2924;51.458;7.046;2024-01-30T10:45:07;12.70;99.90
5796;DHT22;2924;51.458;7.046;2024-01-30T10:47:40;12.80;99.90
5796;DHT22;2924;51.458;7.046;2024-01-30T10:50:07;12.80;99.90
5796;DHT22;2924;51.458;7.046;2024-01-30T10:52:34;12.80;99.90
5796;DHT22;2924;51.458;7.046;2024-01-30T10:55:00;12.70;99.90
5796;DHT22;2924;51.458;7.046;2024-01-30T10:57:26;12.80;99.90
5796;DHT22;2924;51.458;7.046;2024-01-30T11:00:12;12.80;99.90
5796;DHT22;2924;51.458;7.046;2024-01-30T11:02:45;12.90;99.90
5796;DHT22;2924;51.458;7.046;2024-01-30T11:05:12;12.90;99.90
5796;DHT22;2924;51.458;7.046;2024-01-30T11:07:39;12.90;99.90
5796;DHT22;2924;51.458;7.046;2024-01-30T11:10:08;12.90;99.90
5796;DHT22;2924;51.458;7.046;2024-01-30T11:12:39;12.90;99.90
5796;DHT22;2924;51.458;7.046;2024-01-30T11:15:11;13.00;99.90
5796;DHT22;2924;51.458;7.046;2024-01-30T11:17:41;13.10;99.90
5796;DHT22;2924;51.458;7.046;2024-01-30T11:20:16;13.00;99.90
5796;DHT22;2924;51.458;7.046;2024-01-30T11:22:46;13.00;99.90
5796;DHT22;2924;51.458;7.046;2024-01-30T11:25:15;13.00;99.90
5796;DHT22;2924;51.458;7.046;2024-01-30T11:27:43;13.10;99.90
5796;DHT22;2924;51.458;7.046;2024-01-30T11:30:09;13.10;99.90
5796;DHT22;2924;51.458;7.046;2024-01-30T11:32:35;13.10;99.90
5796;DHT22;2924;51.458;7.046;2024-01-30T11:35:03;13.20;99.90
5796;DHT22;2924;51.458;7.046;2024-01-30T11:37:31;13.20;99.90
5796;DHT22;2924;51.458;7.046;2024-01-30T11:39:57;13.00;99.90
5796;DHT22;2924;51.458;7.046;2024-01-30T11:42:24;13.00;99.90
5796;DHT22;2924;51.458;7.046;2024-01-30T11:44:52;12.90;99.90
5796;DHT22;2924;51.458;7.046;2024-01-30T11:47:18;12.80;99.90
5796;DHT22;2924;51.458;7.046;2024-01-30T11:49:44;12.80;99.90
5796;DHT22;2924;51.458;7.046;2024-01-30T11:52:10;12.80;99.90
5796;DHT22;2924;51.458;7.046;2024-01-30T11:54:35;12.90;99.90
5796;DHT22;2924;51.458;7.046;2024-01-30T11:57:04;12.90;99.90
5796;DHT22;2924;51.458;7.046;2024-01-30T11:59:30;12.90;99.90
5796;DHT22;2924;51.458;7.046;2024-01-30T12:01:55;12.80;99.90
5796;DHT22;2924;51.458;7.046;2024-01-30T12:04:22;12.70;99.90
5796;DHT22;2924;51.458;7.046;2024-01-30T12:06:51;12.70;99.90
5796;DHT22;2924;51.458;7.046;2024-01-30T12:09:17;12.60;99.90
5796;DHT22;2924;51.458;7.046;2024-01-30T12:11:46;12.50;99.90
5796;DHT22;2924;51.458;7.046;2024-01-30T12:14:12;12.40;99.90
5796;DHT22;2924;51.458;7.046;2024-01-30T12:16:38;12.30;99.90
5796;DHT22;2924;51.458;7.046;2024-01-30T12:19:04;12.20;99.90
5796;DHT22;2924;51.458;7.046;2024-01-30T12:21:30;12.20;99.90
5796;DHT22;2924;51.458;7.046;2024-01-30T12:23:59;12.20;99.90
5796;DHT22;2924;51.458;7.046;2024-01-30T12:26:26;12.30;99.90
5796;DHT22;2924;51.458;7.046;2024-01-30T12:28:55;12.30;99.90
5796;DHT22;2924;51.458;7.046;2024-01-30T12:31:27;12.40;99.90
5796;DHT22;2924;51.458;7.046;2024-01-30T12:33:54;12.40;99.90
5796;DHT22;2924;51.458;7.046;2024-01-30T12:36:21;12.50;99.90
5796;DHT22;2924;51.458;7.046;2024-01-30T12:38:47;12.60;99.90
5796;DHT22;2924;51.458;7.046;2024-01-30T12:41:13;12.50;99.90
5796;DHT22;2924;51.458;7.046;2024-01-30T12:43:39;12.50;99.90
5796;DHT22;2924;51.458;7.046;2024-01-30T12:46:05;12.50;99.90
5796;DHT22;2924;51.458;7.046;2024-01-30T12:48:31;12.50;99.90
5796;DHT22;2924;51.458;7.046;2024-01-30T12:50:57;12.40;99.90
5796;DHT22;2924;51.458;7.046;2024-01-30T12:53:22;12.30;99.90
5796;DHT22;2924;51.458;7.046;2024-01-30T12:55:48;12.30;99.90
5796;DHT22;2924;51.458;7.046;2024-01-30T12:58:15;12.20;99.90
5796;DHT22;2924;51.458;7.046;2024-01-30T13:00:41;12.10;99.90
5796;DHT22;2924;51.458;7.046;2024-01-30T13:03:09;12.10;99.90
5796;DHT22;2924;51.458;7.046;2024-01-30T13:05:35;12.10;99.90
5796;DHT22;2924;51.458;7.046;2024-01-30T13:08:01;12.00;99.90
5796;DHT22;2924;51.458;7.046;2024-01-30T13:10:26;12.00;99.90
5796;DHT22;2924;51.458;7.046;2024-01-30T13:12:52;12.00;99.90
5796;DHT22;2924;51.458;7.046;2024-01-30T13:15:18;12.00;99.90
5796;DHT22;2924;51.458;7.046;2024-01-30T13:17:44;11.90;99.90
5796;DHT22;2924;51.458;7.046;2024-01-30T13:20:13;11.90;99.90
5796;DHT22;2924;51.458;7.046;2024-01-30T13:22:43;12.00;99.90
5796;DHT22;2924;51.458;7.046;2024-01-30T13:25:08;11.90;99.90
5796;DHT22;2924;51.458;7.046;2024-01-30T13:27:34;11.90;99.90
5796;DHT22;2924;51.458;7.046;2024-01-30T13:30:00;11.90;99.90
5796;DHT22;2924;51.458;7.046;2024-01-30T13:32:26;11.80;99.90
5796;DHT22;2924;51.458;7.046;2024-01-30T13:34:51;11.70;99.90
5796;DHT22;2924;51.458;7.046;2024-01-30T13:37:17;11.70;99.90
5796;DHT22;2924;51.458;7.046;2024-01-30T13:39:43;11.70;99.90
5796;DHT22;2924;51.458;7.046;2024-01-30T13:42:09;11.70;99.90
5796;DHT22;2924;51.458;7.046;2024-01-30T13:44:35;11.60;99.90
5796;DHT22;2924;51.458;7.046;2024-01-30T13:47:01;11.60;99.90
5796;DHT22;2924;51.458;7.046;2024-01-30T13:49:27;11.60;99.90
5796;DHT22;2924;51.458;7.046;2024-01-30T13:51:53;11.50;99.90
5796;DHT22;2924;51.458;7.046;2024-01-30T13:54:18;11.60;99.90
5796;DHT22;2924;51.458;7.046;2024-01-30T13:56:44;11.60;99.90
5796;DHT22;2924;51.458;7.046;2024-01-30T13:59:09;11.60;99.90
5796;DHT22;2924;51.458;7.046;2024-01-30T14:01:35;11.60;99.90
5796;DHT22;2924;51.458;7.046;2024-01-30T14:04:00;11.60;99.90
5796;DHT22;2924;51.458;7.046;2024-01-30T14:06:26;11.60;99.90
5796;DHT22;2924;51.458;7.046;2024-01-30T14:08:52;11.60;99.90
5796;DHT22;2924;51.458;7.046;2024-01-30T14:11:17;11.70;99.90
5796;DHT22;2924;51.458;7.046;2024-01-30T14:13:43;11.70;99.90
5796;DHT22;2924;51.458;7.046;2024-01-30T14:16:09;11.80;99.90
5796;DHT22;2924;51.458;7.046;2024-01-30T14:18:34;11.80;99.90
5796;DHT22;2924;51.458;7.046;2024-01-30T14:21:00;11.80;99.90
5796;DHT22;2924;51.458;7.046;2024-01-30T14:23:26;11.90;99.90
5796;DHT22;2924;51.458;7.046;2024-01-30T14:25:51;12.00;99.90
5796;DHT22;2924;51.458;7.046;2024-01-30T14:28:17;12.10;99.90
5796;DHT22;2924;51.458;7.046;2024-01-30T14:30:42;12.20;99.90
5796;DHT22;2924;51.458;7.046;2024-01-30T14:33:08;12.20;99.90
5796;DHT22;2924;51.458;7.046;2024-01-30T14:35:33;12.20;99.90
5796;DHT22;2924;51.458;7.046;2024-01-30T14:37:59;12.20;99.90
5796;DHT22;2924;51.458;7.046;2024-01-30T14:40:25;12.20;99.90
5796;DHT22;2924;51.458;7.046;2024-01-30T14:42:50;12.10;99.90
5796;DHT22;2924;51.458;7.046;2024-01-30T14:45:16;12.00;99.90
5796;DHT22;2924;51.458;7.046;2024-01-30T14:47:42;11.90;99.90
5796;DHT22;2924;51.458;7.046;2024-01-30T14:50:07;11.90;99.90
5796;DHT22;2924;51.458;7.046;2024-01-30T14:52:33;11.80;99.90
5796;DHT22;2924;51.458;7.046;2024-01-30T14:54:59;11.70;99.90
5796;DHT22;2924;51.458;7.046;2024-01-30T14:57:25;11.70;99.90
5796;DHT22;2924;51.458;7.046;2024-01-30T14:59:51;11.70;99.90
5796;DHT22;2924;51.458;7.046;2024-01-30T15:02:16;11.60;99.90
5796;DHT22;2924;51.458;7.046;2024-01-30T15:04:42;11.60;99.90
5796;DHT22;2924;51.458;7.046;2024-01-30T15:07:08;11.60;99.90
5796;DHT22;2924;51.458;7.046;2024-01-30T15:09:34;11.60;99.90
5796;DHT22;2924;51.458;7.046;2024-01-30T15:11:59;11.60;99.90
5796;DHT22;2924;51.458;7.046;2024-01-30T15:14:25;11.60;99.90
5796;DHT22;2924;51.458;7.046;2024-01-30T15:16:51;11.60;99.90
5796;DHT22;2924;51.458;7.046;2024-01-30T15:19:16;11.60;99.90
5796;DHT22;2924;51.458;7.046;2024-01-30T15:21:42;11.60;99.90
5796;DHT22;2924;51.458;7.046;2024-01-30T15:24:07;11.50;99.90
5796;DHT22;2924;51.458;7.046;2024-01-30T15:26:34;11.40;99.90
5796;DHT22;2924;51.458;7.046;2024-01-30T15:29:00;11.30;99.90
5796;DHT22;2924;51.458;7.046;2024-01-30T15:31:25;11.30;99.90
5796;DHT22;2924;51.458;7.046;2024-01-30T15:33:51;11.30;99.90
5796;DHT22;2924;51.458;7.046;2024-01-30T15:36:16;11.20;99.90
5796;DHT22;2924;51.458;7.046;2024-01-30T15:38:42;11.20;99.90
5796;DHT22;2924;51.458;7.046;2024-01-30T15:41:08;11.10;99.90
5796;DHT22;2924;51.458;7.046;2024-01-30T15:43:33;11.00;99.90
5796;DHT22;2924;51.458;7.046;2024-01-30T15:45:59;11.00;99.90
5796;DHT22;2924;51.458;7.046;2024-01-30T15:48:28;11.00;99.90
5796;DHT22;2924;51.458;7.046;2024-01-30T15:50:54;10.90;99.90
5796;DHT22;2924;51.458;7.046;2024-01-30T15:53:20;10.80;99.90
5796;DHT22;2924;51.458;7.046;2024-01-30T15:55:47;10.80;99.90
5796;DHT22;2924;51.458;7.046;2024-01-30T15:58:13;10.70;99.90
5796;DHT22;2924;51.458;7.046;2024-01-30T16:00:39;10.70;99.90
5796;DHT22;2924;51.458;7.046;2024-01-30T16:03:05;10.60;99.90